SVR3555 UUDD-LTAI
Flight info
| Callsign | SVR3555 |
|---|---|
| Flight time | 4h 30m |
| Altitude | 33000 |
| Route | TOGMO M56 ABAGI B105 NATIT DCT MOLED N50 LIDUS G242 ZG DCT ITAKA DCT OBBUD DCT AMKOL DCT GOTIK DCT MEMZA DCT VENFO DCT BINOL G487 ODIRA UW96 SIN UT61 BAG UW77 HISAR |
| Aircraft | A321/M-SDE3FGHIRWY/LB1 |
Departure
| Time | 2026-05-07 07:01 |
|---|---|
| Airport | Domodedovo International Airport (UUDD) |
Arrival
| Time | 2026-05-07 11:31 |
|---|---|
| Airport | Antalya International Airport (LTAI) |
| Time | Latitude | Longitude | Altitude | Speed | Heading |
|---|---|---|---|---|---|
| 2026-05-07 06:50 | 55.41482 | 37.88556 | 580 ft | 0 kts | 55° |
| 2026-05-07 06:54 | 55.41484 | 37.88561 | 580 ft | 2 kts | 55° |
| 2026-05-07 06:55 | 55.41496 | 37.88590 | 581 ft | 4 kts | 55° |
| 2026-05-07 06:55 | 55.41531 | 37.88606 | 583 ft | 7 kts | 343° |
| 2026-05-07 06:55 | 55.41559 | 37.88532 | 580 ft | 9 kts | 265° |
| 2026-05-07 06:55 | 55.41522 | 37.88425 | 580 ft | 11 kts | 236° |
| 2026-05-07 06:56 | 55.41509 | 37.88304 | 581 ft | 11 kts | 306° |
| 2026-05-07 06:56 | 55.41574 | 37.88221 | 581 ft | 12 kts | 326° |
| 2026-05-07 06:56 | 55.41648 | 37.88133 | 582 ft | 13 kts | 326° |
| 2026-05-07 06:56 | 55.41729 | 37.88035 | 583 ft | 15 kts | 325° |
| 2026-05-07 06:57 | 55.41814 | 37.87932 | 586 ft | 14 kts | 326° |
| 2026-05-07 06:57 | 55.41891 | 37.87840 | 590 ft | 12 kts | 326° |
| 2026-05-07 06:57 | 55.41955 | 37.87763 | 594 ft | 11 kts | 326° |
| 2026-05-07 06:57 | 55.42018 | 37.87687 | 595 ft | 11 kts | 326° |
| 2026-05-07 06:58 | 55.42080 | 37.87613 | 598 ft | 10 kts | 326° |
| 2026-05-07 06:58 | 55.42140 | 37.87542 | 599 ft | 11 kts | 326° |
| 2026-05-07 06:58 | 55.42177 | 37.87427 | 598 ft | 12 kts | 253° |
| 2026-05-07 06:58 | 55.42130 | 37.87306 | 596 ft | 13 kts | 228° |
| 2026-05-07 06:59 | 55.42057 | 37.87278 | 595 ft | 10 kts | 153° |
| 2026-05-07 06:59 | 55.42034 | 37.87305 | 595 ft | 0 kts | 145° |
| 2026-05-07 06:59 | 55.42019 | 37.87323 | 596 ft | 9 kts | 145° |
| 2026-05-07 07:00 | 55.41765 | 37.87630 | 590 ft | 78 kts | 146° |
| 2026-05-07 07:00 | 55.41146 | 37.88375 | 580 ft | 135 kts | 146° |
| 2026-05-07 07:00 | 55.40230 | 37.89467 | 583 ft | 181 kts | 145° |
| 2026-05-07 07:00 | 55.39173 | 37.90742 | 1170 ft | 184 kts | 148° |
| 2026-05-07 07:01 | 55.38063 | 37.91814 | 1848 ft | 181 kts | 165° |
| 2026-05-07 07:01 | 55.36834 | 37.92500 | 2067 ft | 193 kts | 167° |
| 2026-05-07 07:01 | 55.35502 | 37.93234 | 2201 ft | 209 kts | 167° |
| 2026-05-07 07:01 | 55.34035 | 37.94044 | 2380 ft | 230 kts | 168° |
| 2026-05-07 07:02 | 55.32502 | 37.94904 | 2892 ft | 233 kts | 168° |
| 2026-05-07 07:02 | 55.30931 | 37.95418 | 3415 ft | 228 kts | 191° |
| 2026-05-07 07:02 | 55.29430 | 37.94487 | 3683 ft | 238 kts | 215° |
| 2026-05-07 07:02 | 55.27992 | 37.92839 | 4061 ft | 248 kts | 216° |
| 2026-05-07 07:03 | 55.26540 | 37.91139 | 4590 ft | 254 kts | 216° |
| 2026-05-07 07:03 | 55.25062 | 37.89413 | 5169 ft | 257 kts | 216° |
| 2026-05-07 07:03 | 55.23560 | 37.87675 | 5739 ft | 261 kts | 216° |
| 2026-05-07 07:03 | 55.22035 | 37.85930 | 6323 ft | 263 kts | 216° |
| 2026-05-07 07:04 | 55.20496 | 37.84176 | 6868 ft | 265 kts | 216° |
| 2026-05-07 07:04 | 55.18939 | 37.82398 | 7373 ft | 269 kts | 216° |
| 2026-05-07 07:04 | 55.17896 | 37.81208 | 7737 ft | 271 kts | 216° |
| 2026-05-07 07:04 | 55.15592 | 37.79314 | 8068 ft | 280 kts | 196° |
| 2026-05-07 07:05 | 55.14333 | 37.78812 | 8437 ft | 282 kts | 195° |
| 2026-05-07 07:05 | 55.11762 | 37.77748 | 9124 ft | 287 kts | 196° |
| 2026-05-07 07:05 | 55.09811 | 37.76923 | 9679 ft | 289 kts | 196° |
| 2026-05-07 07:05 | 55.07844 | 37.76088 | 10150 ft | 295 kts | 196° |
| 2026-05-07 07:06 | 55.06498 | 37.75512 | 10233 ft | 307 kts | 196° |
| 2026-05-07 07:06 | 55.03677 | 37.74303 | 10768 ft | 315 kts | 196° |
| 2026-05-07 07:06 | 55.02269 | 37.73707 | 11117 ft | 316 kts | 195° |
| 2026-05-07 07:06 | 55.00068 | 37.73249 | 11670 ft | 321 kts | 183° |
| 2026-05-07 07:07 | 54.97833 | 37.73694 | 12218 ft | 327 kts | 169° |
| 2026-05-07 07:07 | 54.95634 | 37.74818 | 12752 ft | 330 kts | 167° |
| 2026-05-07 07:07 | 54.93426 | 37.75966 | 13261 ft | 332 kts | 168° |
| 2026-05-07 07:07 | 54.91203 | 37.77109 | 13753 ft | 334 kts | 168° |
| 2026-05-07 07:08 | 54.88966 | 37.78252 | 14226 ft | 336 kts | 168° |
| 2026-05-07 07:08 | 54.86715 | 37.79421 | 14686 ft | 339 kts | 165° |
| 2026-05-07 07:08 | 54.84589 | 37.81307 | 14894 ft | 349 kts | 146° |
| 2026-05-07 07:08 | 54.82904 | 37.84376 | 14953 ft | 357 kts | 124° |
| 2026-05-07 07:09 | 54.81911 | 37.88350 | 15350 ft | 365 kts | 105° |
| 2026-05-07 07:09 | 54.81525 | 37.92722 | 15775 ft | 368 kts | 98° |
| 2026-05-07 07:09 | 54.81213 | 37.97128 | 16270 ft | 369 kts | 98° |
| 2026-05-07 07:09 | 54.80900 | 38.01557 | 16718 ft | 371 kts | 98° |
| 2026-05-07 07:10 | 54.80585 | 38.06006 | 17160 ft | 373 kts | 98° |
| 2026-05-07 07:10 | 54.80263 | 38.10482 | 17577 ft | 375 kts | 98° |
| 2026-05-07 07:10 | 54.79936 | 38.14984 | 18019 ft | 377 kts | 98° |
| 2026-05-07 07:10 | 54.79605 | 38.19507 | 18424 ft | 380 kts | 98° |
| 2026-05-07 07:11 | 54.79269 | 38.24055 | 18808 ft | 382 kts | 98° |
| 2026-05-07 07:11 | 54.78933 | 38.28623 | 19188 ft | 383 kts | 98° |
| 2026-05-07 07:11 | 54.78594 | 38.33219 | 19562 ft | 385 kts | 98° |
| 2026-05-07 07:11 | 54.78251 | 38.37834 | 19935 ft | 387 kts | 98° |
| 2026-05-07 07:12 | 54.77906 | 38.42476 | 20299 ft | 390 kts | 98° |
| 2026-05-07 07:12 | 54.77556 | 38.47147 | 20674 ft | 392 kts | 98° |
| 2026-05-07 07:12 | 54.77202 | 38.51833 | 20906 ft | 394 kts | 98° |
| 2026-05-07 07:12 | 54.76685 | 38.56470 | 20941 ft | 391 kts | 109° |
| 2026-05-07 07:13 | 54.75651 | 38.60777 | 20943 ft | 386 kts | 122° |
| 2026-05-07 07:13 | 54.74131 | 38.64594 | 20959 ft | 387 kts | 134° |
| 2026-05-07 07:13 | 54.72173 | 38.67816 | 21090 ft | 392 kts | 146° |
| 2026-05-07 07:13 | 54.69873 | 38.70401 | 21233 ft | 398 kts | 152° |
| 2026-05-07 07:14 | 54.67473 | 38.72890 | 21360 ft | 407 kts | 152° |
| 2026-05-07 07:14 | 54.65021 | 38.75435 | 21495 ft | 416 kts | 152° |
| 2026-05-07 07:14 | 54.62518 | 38.78033 | 21624 ft | 424 kts | 152° |
| 2026-05-07 07:14 | 54.59973 | 38.80674 | 21757 ft | 431 kts | 152° |
| 2026-05-07 07:15 | 54.57385 | 38.83365 | 21891 ft | 438 kts | 152° |
| 2026-05-07 07:15 | 54.54752 | 38.86104 | 22016 ft | 444 kts | 151° |
| 2026-05-07 07:15 | 54.52088 | 38.88871 | 22152 ft | 450 kts | 151° |
| 2026-05-07 07:15 | 54.49388 | 38.91663 | 22391 ft | 454 kts | 151° |
| 2026-05-07 07:16 | 54.46676 | 38.94454 | 22672 ft | 456 kts | 151° |
| 2026-05-07 07:16 | 54.43951 | 38.97282 | 22968 ft | 459 kts | 149° |
| 2026-05-07 07:16 | 54.41406 | 39.00619 | 23255 ft | 463 kts | 140° |
| 2026-05-07 07:16 | 54.39188 | 39.04659 | 23547 ft | 467 kts | 130° |
| 2026-05-07 07:17 | 54.37371 | 39.09295 | 23801 ft | 471 kts | 120° |
| 2026-05-07 07:17 | 54.35987 | 39.14405 | 24039 ft | 474 kts | 113° |
| 2026-05-07 07:17 | 54.34741 | 39.19637 | 24286 ft | 475 kts | 114° |
| 2026-05-07 07:17 | 54.33485 | 39.24866 | 24558 ft | 475 kts | 114° |
| 2026-05-07 07:18 | 54.32222 | 39.30097 | 24851 ft | 476 kts | 114° |
| 2026-05-07 07:18 | 54.30951 | 39.35340 | 25123 ft | 476 kts | 114° |
| 2026-05-07 07:18 | 54.29678 | 39.40583 | 25388 ft | 477 kts | 114° |
| 2026-05-07 07:18 | 54.28397 | 39.45831 | 25655 ft | 478 kts | 114° |
| 2026-05-07 07:19 | 54.27116 | 39.51067 | 26039 ft | 476 kts | 114° |
| 2026-05-07 07:19 | 54.25838 | 39.56274 | 26419 ft | 474 kts | 114° |
| 2026-05-07 07:19 | 54.24562 | 39.61465 | 26797 ft | 472 kts | 114° |
| 2026-05-07 07:19 | 54.23290 | 39.66635 | 27164 ft | 471 kts | 114° |
| 2026-05-07 07:20 | 54.22024 | 39.71782 | 27526 ft | 469 kts | 114° |
| 2026-05-07 07:20 | 54.20760 | 39.76914 | 27882 ft | 468 kts | 114° |
| 2026-05-07 07:20 | 54.19496 | 39.82031 | 28253 ft | 466 kts | 114° |
| 2026-05-07 07:20 | 54.18234 | 39.87123 | 28604 ft | 465 kts | 114° |
| 2026-05-07 07:21 | 54.16974 | 39.92192 | 28974 ft | 463 kts | 115° |
| 2026-05-07 07:21 | 54.15716 | 39.97238 | 29330 ft | 462 kts | 115° |
| 2026-05-07 07:21 | 54.14455 | 40.02277 | 29681 ft | 461 kts | 115° |
| 2026-05-07 07:21 | 54.13197 | 40.07283 | 30032 ft | 459 kts | 115° |
| 2026-05-07 07:22 | 54.11952 | 40.12300 | 30302 ft | 459 kts | 112° |
| 2026-05-07 07:22 | 54.10977 | 40.17475 | 30560 ft | 459 kts | 108° |
| 2026-05-07 07:22 | 54.10085 | 40.22684 | 30843 ft | 457 kts | 108° |
| 2026-05-07 07:22 | 54.09194 | 40.27875 | 31110 ft | 456 kts | 108° |
| 2026-05-07 07:23 | 54.08297 | 40.33058 | 31360 ft | 456 kts | 108° |
| 2026-05-07 07:23 | 54.07397 | 40.38236 | 31601 ft | 456 kts | 108° |
| 2026-05-07 07:23 | 54.06493 | 40.43403 | 31837 ft | 455 kts | 108° |
| 2026-05-07 07:23 | 54.05586 | 40.48562 | 32076 ft | 455 kts | 108° |
| 2026-05-07 07:24 | 54.04678 | 40.53724 | 32303 ft | 455 kts | 108° |
| 2026-05-07 07:24 | 54.03770 | 40.58871 | 32532 ft | 454 kts | 108° |
| 2026-05-07 07:24 | 54.02860 | 40.64014 | 32748 ft | 454 kts | 108° |
| 2026-05-07 07:24 | 54.01947 | 40.69163 | 32927 ft | 455 kts | 108° |
| 2026-05-07 07:25 | 53.99188 | 40.84610 | 32983 ft | 456 kts | 108° |
| 2026-05-07 07:26 | 53.97336 | 40.94914 | 32981 ft | 456 kts | 108° |
| 2026-05-07 07:26 | 53.95481 | 41.05209 | 32981 ft | 456 kts | 108° |
| 2026-05-07 07:27 | 53.93747 | 41.15511 | 32981 ft | 456 kts | 106° |
| 2026-05-07 07:27 | 53.92090 | 41.25905 | 32989 ft | 457 kts | 106° |
| 2026-05-07 07:28 | 53.90414 | 41.36290 | 33004 ft | 456 kts | 106° |
| 2026-05-07 07:28 | 53.88694 | 41.46645 | 33002 ft | 456 kts | 107° |
| 2026-05-07 07:29 | 53.86957 | 41.56971 | 33006 ft | 456 kts | 107° |
| 2026-05-07 07:29 | 53.85211 | 41.67282 | 33001 ft | 455 kts | 107° |
| 2026-05-07 07:30 | 53.83458 | 41.77587 | 33000 ft | 455 kts | 107° |
| 2026-05-07 07:30 | 53.81707 | 41.87876 | 33000 ft | 454 kts | 107° |
| 2026-05-07 07:31 | 53.79948 | 41.98134 | 33000 ft | 454 kts | 107° |
| 2026-05-07 07:31 | 53.78168 | 42.08383 | 32999 ft | 454 kts | 107° |
| 2026-05-07 07:32 | 53.76382 | 42.18614 | 32997 ft | 454 kts | 107° |
| 2026-05-07 07:32 | 53.74590 | 42.28843 | 32998 ft | 454 kts | 107° |
| 2026-05-07 07:33 | 53.72793 | 42.39047 | 33006 ft | 453 kts | 107° |
| 2026-05-07 07:33 | 53.70984 | 42.49221 | 33002 ft | 452 kts | 107° |
| 2026-05-07 07:34 | 53.68927 | 42.59224 | 32992 ft | 451 kts | 118° |
| 2026-05-07 07:34 | 53.65192 | 42.67607 | 32991 ft | 448 kts | 138° |
| 2026-05-07 07:35 | 53.59995 | 42.73277 | 32987 ft | 447 kts | 157° |
| 2026-05-07 07:35 | 53.54268 | 42.77375 | 32970 ft | 448 kts | 156° |
| 2026-05-07 07:36 | 53.48529 | 42.81509 | 32976 ft | 449 kts | 156° |
| 2026-05-07 07:36 | 53.42788 | 42.85653 | 32971 ft | 449 kts | 156° |
| 2026-05-07 07:37 | 53.37038 | 42.89765 | 32977 ft | 449 kts | 156° |
| 2026-05-07 07:37 | 53.31283 | 42.93885 | 32977 ft | 450 kts | 156° |
| 2026-05-07 07:38 | 53.25523 | 42.97994 | 32971 ft | 451 kts | 156° |
| 2026-05-07 07:38 | 53.19751 | 43.02099 | 32967 ft | 451 kts | 156° |
| 2026-05-07 07:39 | 53.13966 | 43.06188 | 32968 ft | 452 kts | 157° |
| 2026-05-07 07:39 | 53.08194 | 43.10370 | 32979 ft | 453 kts | 155° |
| 2026-05-07 07:40 | 53.02445 | 43.14689 | 32970 ft | 454 kts | 155° |
| 2026-05-07 07:40 | 52.96691 | 43.19017 | 32973 ft | 454 kts | 155° |
| 2026-05-07 07:41 | 52.90915 | 43.23299 | 32974 ft | 455 kts | 155° |
| 2026-05-07 07:41 | 52.85126 | 43.27547 | 32979 ft | 455 kts | 156° |
| 2026-05-07 07:42 | 52.79332 | 43.31803 | 32983 ft | 456 kts | 155° |
| 2026-05-07 07:42 | 52.73533 | 43.36055 | 32981 ft | 456 kts | 155° |
| 2026-05-07 07:43 | 52.67724 | 43.40280 | 32975 ft | 457 kts | 156° |
| 2026-05-07 07:43 | 52.61910 | 43.44504 | 32979 ft | 457 kts | 156° |
| 2026-05-07 07:44 | 52.56096 | 43.48732 | 32981 ft | 457 kts | 155° |
| 2026-05-07 07:44 | 52.50274 | 43.52949 | 32977 ft | 457 kts | 155° |
| 2026-05-07 07:45 | 52.44452 | 43.57151 | 32979 ft | 457 kts | 156° |
| 2026-05-07 07:45 | 52.38629 | 43.61343 | 32980 ft | 457 kts | 156° |
| 2026-05-07 07:46 | 52.32801 | 43.65535 | 32983 ft | 457 kts | 156° |
| 2026-05-07 07:46 | 52.26971 | 43.69705 | 32983 ft | 457 kts | 156° |
| 2026-05-07 07:47 | 52.21145 | 43.73849 | 32979 ft | 457 kts | 155° |
| 2026-05-07 07:47 | 52.15315 | 43.78001 | 32981 ft | 457 kts | 155° |
| 2026-05-07 07:48 | 52.10470 | 43.81441 | 32978 ft | 457 kts | 155° |
| 2026-05-07 07:48 | 52.04634 | 43.85571 | 32986 ft | 457 kts | 155° |
| 2026-05-07 07:49 | 51.98792 | 43.89688 | 32981 ft | 458 kts | 155° |
| 2026-05-07 07:49 | 51.92952 | 43.93791 | 32978 ft | 458 kts | 155° |
| 2026-05-07 07:50 | 51.87107 | 43.97888 | 32974 ft | 458 kts | 155° |
| 2026-05-07 07:50 | 51.81264 | 44.01985 | 32978 ft | 458 kts | 155° |
| 2026-05-07 07:51 | 51.75418 | 44.06067 | 32979 ft | 458 kts | 155° |
| 2026-05-07 07:51 | 51.69563 | 44.10137 | 32972 ft | 458 kts | 155° |
| 2026-05-07 07:52 | 51.63701 | 44.14206 | 32974 ft | 459 kts | 155° |
| 2026-05-07 07:52 | 51.57837 | 44.18261 | 32972 ft | 459 kts | 155° |
| 2026-05-07 07:53 | 51.51969 | 44.22309 | 32976 ft | 459 kts | 155° |
| 2026-05-07 07:53 | 51.46096 | 44.26353 | 32973 ft | 460 kts | 155° |
| 2026-05-07 07:54 | 51.40216 | 44.30391 | 32970 ft | 460 kts | 155° |
| 2026-05-07 07:54 | 51.34338 | 44.34416 | 32970 ft | 460 kts | 155° |
| 2026-05-07 07:55 | 51.28451 | 44.38426 | 32976 ft | 460 kts | 155° |
| 2026-05-07 07:55 | 51.22563 | 44.42427 | 32970 ft | 460 kts | 155° |
| 2026-05-07 07:56 | 51.16523 | 44.45820 | 32959 ft | 463 kts | 167° |
| 2026-05-07 07:56 | 51.10091 | 44.46367 | 32957 ft | 465 kts | 182° |
| 2026-05-07 07:57 | 51.03622 | 44.45732 | 32952 ft | 466 kts | 182° |
| 2026-05-07 07:57 | 50.97151 | 44.45146 | 32965 ft | 466 kts | 182° |
| 2026-05-07 07:58 | 50.90665 | 44.44559 | 32967 ft | 467 kts | 182° |
| 2026-05-07 07:58 | 50.84183 | 44.43952 | 32973 ft | 467 kts | 182° |
| 2026-05-07 07:59 | 50.77703 | 44.43348 | 32973 ft | 467 kts | 182° |
| 2026-05-07 07:59 | 50.71261 | 44.42752 | 32978 ft | 467 kts | 182° |
| 2026-05-07 08:00 | 50.64777 | 44.42143 | 32980 ft | 467 kts | 182° |
| 2026-05-07 08:00 | 50.58298 | 44.41547 | 32978 ft | 467 kts | 182° |
| 2026-05-07 08:01 | 50.51808 | 44.40951 | 32977 ft | 467 kts | 182° |
| 2026-05-07 08:01 | 50.45328 | 44.40357 | 32978 ft | 466 kts | 182° |
| 2026-05-07 08:02 | 50.38852 | 44.39764 | 32974 ft | 466 kts | 182° |
| 2026-05-07 08:02 | 50.32381 | 44.39170 | 32981 ft | 466 kts | 182° |
| 2026-05-07 08:03 | 50.25906 | 44.38588 | 32973 ft | 466 kts | 183° |
| 2026-05-07 08:03 | 50.19436 | 44.38012 | 32974 ft | 465 kts | 183° |
| 2026-05-07 08:04 | 50.12974 | 44.37427 | 32965 ft | 465 kts | 183° |
| 2026-05-07 08:04 | 50.06507 | 44.36841 | 32975 ft | 465 kts | 183° |
| 2026-05-07 08:05 | 50.00040 | 44.36264 | 32976 ft | 466 kts | 183° |
| 2026-05-07 08:05 | 49.93568 | 44.35684 | 32966 ft | 466 kts | 183° |
| 2026-05-07 08:06 | 49.87087 | 44.35100 | 32967 ft | 467 kts | 183° |
| 2026-05-07 08:06 | 49.80599 | 44.34508 | 32962 ft | 467 kts | 183° |
| 2026-05-07 08:07 | 49.74109 | 44.33937 | 32971 ft | 467 kts | 183° |
| 2026-05-07 08:07 | 49.67620 | 44.33372 | 32968 ft | 467 kts | 183° |
| 2026-05-07 08:08 | 49.61133 | 44.32818 | 32973 ft | 467 kts | 180° |
| 2026-05-07 08:08 | 49.54723 | 44.34022 | 32961 ft | 465 kts | 162° |
| 2026-05-07 08:09 | 49.48705 | 44.37601 | 32964 ft | 464 kts | 156° |
| 2026-05-07 08:09 | 49.42745 | 44.41397 | 32961 ft | 464 kts | 156° |
| 2026-05-07 08:10 | 49.36778 | 44.45174 | 32966 ft | 464 kts | 156° |
| 2026-05-07 08:10 | 49.30811 | 44.48952 | 32963 ft | 464 kts | 156° |
| 2026-05-07 08:11 | 49.24838 | 44.52726 | 32962 ft | 464 kts | 156° |
| 2026-05-07 08:11 | 49.18866 | 44.56484 | 32961 ft | 464 kts | 156° |
| 2026-05-07 08:12 | 49.12893 | 44.60231 | 32977 ft | 464 kts | 156° |
| 2026-05-07 08:12 | 49.06917 | 44.63969 | 32973 ft | 464 kts | 156° |
| 2026-05-07 08:13 | 49.00938 | 44.67704 | 32967 ft | 464 kts | 156° |
| 2026-05-07 08:13 | 48.94960 | 44.71416 | 32972 ft | 464 kts | 156° |
| 2026-05-07 08:14 | 48.88984 | 44.75122 | 32979 ft | 464 kts | 156° |
| 2026-05-07 08:14 | 48.83161 | 44.79275 | 32967 ft | 462 kts | 146° |
| 2026-05-07 08:15 | 48.78055 | 44.85135 | 32962 ft | 460 kts | 140° |
| 2026-05-07 08:15 | 48.73008 | 44.91115 | 32961 ft | 461 kts | 140° |
| 2026-05-07 08:16 | 48.67952 | 44.97075 | 32964 ft | 461 kts | 140° |
| 2026-05-07 08:16 | 48.62893 | 45.03035 | 32962 ft | 461 kts | 140° |
| 2026-05-07 08:17 | 48.57834 | 45.08995 | 32959 ft | 461 kts | 140° |
| 2026-05-07 08:17 | 48.52769 | 45.14943 | 32960 ft | 461 kts | 140° |
| 2026-05-07 08:18 | 48.47694 | 45.20869 | 32966 ft | 461 kts | 140° |
| 2026-05-07 08:18 | 48.42618 | 45.26773 | 32964 ft | 461 kts | 140° |
| 2026-05-07 08:19 | 48.37159 | 45.31840 | 32964 ft | 463 kts | 152° |
| 2026-05-07 08:19 | 48.31369 | 45.36100 | 32971 ft | 464 kts | 152° |
| 2026-05-07 08:20 | 48.25572 | 45.40352 | 32960 ft | 464 kts | 152° |
| 2026-05-07 08:20 | 48.19772 | 45.44605 | 32958 ft | 464 kts | 152° |
| 2026-05-07 08:21 | 48.13965 | 45.48842 | 32954 ft | 464 kts | 152° |
| 2026-05-07 08:21 | 48.08153 | 45.53064 | 32972 ft | 464 kts | 152° |
| 2026-05-07 08:22 | 48.02340 | 45.57288 | 32964 ft | 465 kts | 152° |
| 2026-05-07 08:22 | 47.96528 | 45.61515 | 32962 ft | 465 kts | 152° |
| 2026-05-07 08:23 | 47.90707 | 45.65727 | 32956 ft | 465 kts | 152° |
| 2026-05-07 08:23 | 47.84887 | 45.69915 | 32970 ft | 465 kts | 152° |
| 2026-05-07 08:24 | 47.79061 | 45.74101 | 32963 ft | 465 kts | 152° |
| 2026-05-07 08:24 | 47.73237 | 45.78279 | 32961 ft | 465 kts | 151° |
| 2026-05-07 08:25 | 47.67419 | 45.82449 | 32964 ft | 464 kts | 151° |
| 2026-05-07 08:25 | 47.61601 | 45.86604 | 32966 ft | 464 kts | 152° |
| 2026-05-07 08:26 | 47.52883 | 45.92803 | 32961 ft | 463 kts | 152° |
| 2026-05-07 08:26 | 47.47076 | 45.96933 | 32962 ft | 463 kts | 151° |
| 2026-05-07 08:27 | 47.41269 | 46.01041 | 32958 ft | 463 kts | 152° |
| 2026-05-07 08:27 | 47.35466 | 46.05137 | 32957 ft | 462 kts | 152° |
| 2026-05-07 08:28 | 47.29663 | 46.09246 | 32957 ft | 462 kts | 151° |
| 2026-05-07 08:28 | 47.23866 | 46.13342 | 32971 ft | 462 kts | 152° |
| 2026-05-07 08:29 | 47.18066 | 46.17415 | 32967 ft | 461 kts | 152° |
| 2026-05-07 08:29 | 47.13253 | 46.20785 | 32964 ft | 461 kts | 152° |
| 2026-05-07 08:30 | 47.07580 | 46.25120 | 32959 ft | 457 kts | 142° |
| 2026-05-07 08:30 | 47.02960 | 46.31349 | 32963 ft | 449 kts | 125° |
| 2026-05-07 08:31 | 46.99520 | 46.38951 | 32953 ft | 448 kts | 120° |
| 2026-05-07 08:31 | 46.96170 | 46.46651 | 32948 ft | 448 kts | 120° |
| 2026-05-07 08:32 | 46.92806 | 46.54342 | 32948 ft | 449 kts | 120° |
| 2026-05-07 08:32 | 46.89443 | 46.62029 | 32958 ft | 449 kts | 120° |
| 2026-05-07 08:33 | 46.86071 | 46.69720 | 32949 ft | 450 kts | 120° |
| 2026-05-07 08:33 | 46.82694 | 46.77416 | 32941 ft | 450 kts | 120° |
| 2026-05-07 08:34 | 46.79297 | 46.85101 | 32940 ft | 451 kts | 121° |
| 2026-05-07 08:34 | 46.75895 | 46.92783 | 32948 ft | 451 kts | 121° |
| 2026-05-07 08:35 | 46.72484 | 47.00456 | 32941 ft | 451 kts | 121° |
| 2026-05-07 08:35 | 46.69067 | 47.08136 | 32940 ft | 452 kts | 120° |
| 2026-05-07 08:36 | 46.65691 | 47.15851 | 32936 ft | 452 kts | 120° |
| 2026-05-07 08:36 | 46.62343 | 47.23586 | 32943 ft | 452 kts | 120° |
| 2026-05-07 08:37 | 46.58990 | 47.31308 | 32943 ft | 452 kts | 120° |
| 2026-05-07 08:37 | 46.55611 | 47.39009 | 32939 ft | 452 kts | 120° |
| 2026-05-07 08:38 | 46.52225 | 47.46703 | 32939 ft | 452 kts | 121° |
| 2026-05-07 08:38 | 46.48839 | 47.54384 | 32949 ft | 452 kts | 121° |
| 2026-05-07 08:39 | 46.45439 | 47.62049 | 32950 ft | 451 kts | 120° |
| 2026-05-07 08:39 | 46.42036 | 47.69701 | 32947 ft | 451 kts | 121° |
| 2026-05-07 08:40 | 46.38642 | 47.77349 | 32946 ft | 451 kts | 121° |
| 2026-05-07 08:40 | 46.35248 | 47.84983 | 32971 ft | 451 kts | 120° |
| 2026-05-07 08:41 | 46.31847 | 47.92597 | 32972 ft | 450 kts | 121° |
| 2026-05-07 08:41 | 46.28647 | 48.00362 | 32963 ft | 448 kts | 111° |
| 2026-05-07 08:42 | 46.26903 | 48.08951 | 32953 ft | 445 kts | 101° |
| 2026-05-07 08:42 | 46.25580 | 48.17689 | 32953 ft | 446 kts | 101° |
| 2026-05-07 08:43 | 46.24230 | 48.26437 | 32958 ft | 446 kts | 101° |
| 2026-05-07 08:43 | 46.22879 | 48.35183 | 32953 ft | 446 kts | 101° |
| 2026-05-07 08:44 | 46.21527 | 48.43915 | 32933 ft | 446 kts | 101° |
| 2026-05-07 08:44 | 46.19681 | 48.52447 | 32937 ft | 448 kts | 117° |
| 2026-05-07 08:45 | 46.18024 | 48.56184 | 32935 ft | 450 kts | 129° |
| 2026-05-07 08:45 | 46.15842 | 48.59416 | 32924 ft | 451 kts | 140° |
| 2026-05-07 08:45 | 46.13229 | 48.61930 | 32910 ft | 453 kts | 152° |
| 2026-05-07 08:45 | 46.10255 | 48.63626 | 32906 ft | 455 kts | 163° |
| 2026-05-07 08:46 | 46.04174 | 48.66060 | 32911 ft | 457 kts | 163° |
| 2026-05-07 08:46 | 45.97997 | 48.68541 | 32923 ft | 458 kts | 163° |
| 2026-05-07 08:47 | 45.91895 | 48.71006 | 32928 ft | 459 kts | 163° |
| 2026-05-07 08:47 | 45.85708 | 48.73484 | 32941 ft | 459 kts | 163° |
| 2026-05-07 08:48 | 45.79601 | 48.75920 | 32955 ft | 458 kts | 163° |
| 2026-05-07 08:48 | 45.73420 | 48.78391 | 32959 ft | 458 kts | 163° |
| 2026-05-07 08:49 | 45.67320 | 48.80807 | 32966 ft | 458 kts | 164° |
| 2026-05-07 08:49 | 45.61141 | 48.83248 | 32960 ft | 458 kts | 163° |
| 2026-05-07 08:50 | 45.55047 | 48.85665 | 32976 ft | 458 kts | 163° |
| 2026-05-07 08:50 | 45.48911 | 48.88097 | 32971 ft | 457 kts | 164° |
| 2026-05-07 08:51 | 45.42785 | 48.90512 | 32993 ft | 456 kts | 164° |
| 2026-05-07 08:51 | 45.36672 | 48.92911 | 33000 ft | 455 kts | 164° |
| 2026-05-07 08:52 | 45.30569 | 48.95304 | 32988 ft | 455 kts | 164° |
| 2026-05-07 08:52 | 45.24472 | 48.97689 | 32998 ft | 454 kts | 165° |
| 2026-05-07 08:53 | 45.18382 | 49.00064 | 33002 ft | 453 kts | 165° |
| 2026-05-07 08:53 | 45.12293 | 49.02438 | 32995 ft | 454 kts | 165° |
| 2026-05-07 08:54 | 45.06205 | 49.04806 | 32987 ft | 454 kts | 166° |
| 2026-05-07 08:54 | 45.00121 | 49.07164 | 33004 ft | 453 kts | 166° |
| 2026-05-07 08:55 | 44.94053 | 49.09520 | 33023 ft | 452 kts | 167° |
| 2026-05-07 08:55 | 44.87994 | 49.11858 | 33009 ft | 451 kts | 166° |
| 2026-05-07 08:56 | 44.81938 | 49.14192 | 33004 ft | 451 kts | 167° |
| 2026-05-07 08:56 | 44.75880 | 49.16514 | 33017 ft | 451 kts | 167° |
| 2026-05-07 08:57 | 44.69814 | 49.18838 | 33016 ft | 452 kts | 167° |
| 2026-05-07 08:57 | 44.63750 | 49.21163 | 33014 ft | 452 kts | 168° |
| 2026-05-07 08:58 | 44.57685 | 49.23487 | 33025 ft | 451 kts | 168° |
| 2026-05-07 08:58 | 44.51631 | 49.25794 | 33025 ft | 451 kts | 168° |
| 2026-05-07 08:59 | 44.45571 | 49.28094 | 33034 ft | 451 kts | 168° |
| 2026-05-07 08:59 | 44.39519 | 49.30390 | 33032 ft | 450 kts | 168° |
| 2026-05-07 09:00 | 44.33480 | 49.32682 | 33042 ft | 449 kts | 168° |
| 2026-05-07 09:00 | 44.27451 | 49.34961 | 33045 ft | 449 kts | 168° |
| 2026-05-07 09:01 | 44.21427 | 49.37230 | 33035 ft | 448 kts | 169° |
| 2026-05-07 09:01 | 44.15409 | 49.39489 | 33054 ft | 447 kts | 169° |
| 2026-05-07 09:02 | 44.09407 | 49.41750 | 33056 ft | 447 kts | 169° |
| 2026-05-07 09:02 | 44.03408 | 49.44003 | 33061 ft | 446 kts | 169° |
| 2026-05-07 09:03 | 43.97396 | 49.46074 | 33040 ft | 440 kts | 179° |
| 2026-05-07 09:03 | 43.94378 | 49.46022 | 33044 ft | 430 kts | 194° |
| 2026-05-07 09:03 | 43.91547 | 49.44850 | 33046 ft | 422 kts | 208° |
| 2026-05-07 09:04 | 43.89088 | 49.42686 | 33049 ft | 417 kts | 223° |
| 2026-05-07 09:04 | 43.87155 | 49.39719 | 33044 ft | 415 kts | 237° |
| 2026-05-07 09:04 | 43.85856 | 49.36163 | 33039 ft | 416 kts | 251° |
| 2026-05-07 09:04 | 43.85223 | 49.32248 | 33039 ft | 418 kts | 259° |
| 2026-05-07 09:05 | 43.84283 | 49.24292 | 33038 ft | 419 kts | 258° |
| 2026-05-07 09:05 | 43.83316 | 49.16314 | 33043 ft | 420 kts | 258° |
| 2026-05-07 09:06 | 43.82338 | 49.08328 | 33053 ft | 421 kts | 258° |
| 2026-05-07 09:06 | 43.81354 | 49.00332 | 33068 ft | 421 kts | 258° |
| 2026-05-07 09:07 | 43.80369 | 48.92319 | 33064 ft | 423 kts | 258° |
| 2026-05-07 09:07 | 43.79379 | 48.84284 | 33062 ft | 424 kts | 258° |
| 2026-05-07 09:08 | 43.78379 | 48.76238 | 33063 ft | 425 kts | 258° |
| 2026-05-07 09:08 | 43.77369 | 48.68185 | 33062 ft | 425 kts | 258° |
| 2026-05-07 09:09 | 43.76348 | 48.60133 | 33063 ft | 425 kts | 258° |
| 2026-05-07 09:09 | 43.75324 | 48.52073 | 33068 ft | 425 kts | 258° |
| 2026-05-07 09:10 | 43.74299 | 48.44021 | 33069 ft | 425 kts | 258° |
| 2026-05-07 09:10 | 43.73269 | 48.35976 | 33069 ft | 425 kts | 258° |
| 2026-05-07 09:11 | 43.72232 | 48.27939 | 33069 ft | 424 kts | 258° |
| 2026-05-07 09:11 | 43.71182 | 48.19908 | 33082 ft | 425 kts | 258° |
| 2026-05-07 09:12 | 43.70304 | 48.13235 | 33072 ft | 425 kts | 258° |
| 2026-05-07 09:12 | 43.69244 | 48.05185 | 33064 ft | 426 kts | 258° |
| 2026-05-07 09:13 | 43.68188 | 47.97122 | 33062 ft | 427 kts | 258° |
| 2026-05-07 09:13 | 43.67123 | 47.89056 | 33058 ft | 427 kts | 258° |
| 2026-05-07 09:14 | 43.66037 | 47.80995 | 33060 ft | 427 kts | 257° |
| 2026-05-07 09:14 | 43.64945 | 47.72939 | 33063 ft | 427 kts | 257° |
| 2026-05-07 09:15 | 43.63851 | 47.64871 | 33062 ft | 427 kts | 257° |
| 2026-05-07 09:15 | 43.62763 | 47.56819 | 33065 ft | 427 kts | 257° |
| 2026-05-07 09:16 | 43.61680 | 47.48762 | 33070 ft | 427 kts | 258° |
| 2026-05-07 09:16 | 43.60913 | 47.40631 | 33068 ft | 429 kts | 262° |
| 2026-05-07 09:17 | 43.60340 | 47.32423 | 33057 ft | 430 kts | 262° |
| 2026-05-07 09:17 | 43.59722 | 47.24202 | 33058 ft | 431 kts | 262° |
| 2026-05-07 09:18 | 43.59029 | 47.15986 | 33065 ft | 431 kts | 261° |
| 2026-05-07 09:18 | 43.58310 | 47.07773 | 33079 ft | 431 kts | 261° |
| 2026-05-07 09:19 | 43.57598 | 46.99557 | 33069 ft | 432 kts | 261° |
| 2026-05-07 09:19 | 43.56893 | 46.91333 | 33080 ft | 432 kts | 261° |
| 2026-05-07 09:20 | 43.56179 | 46.83124 | 33085 ft | 431 kts | 261° |
| 2026-05-07 09:20 | 43.55456 | 46.74900 | 33080 ft | 433 kts | 261° |
| 2026-05-07 09:21 | 43.54725 | 46.66647 | 33065 ft | 435 kts | 261° |
| 2026-05-07 09:21 | 43.53982 | 46.58373 | 33069 ft | 436 kts | 261° |
| 2026-05-07 09:22 | 43.53228 | 46.50084 | 33070 ft | 436 kts | 261° |
| 2026-05-07 09:22 | 43.52474 | 46.41783 | 33081 ft | 437 kts | 261° |
| 2026-05-07 09:23 | 43.51719 | 46.33478 | 33092 ft | 437 kts | 261° |
| 2026-05-07 09:23 | 43.50955 | 46.25178 | 33098 ft | 437 kts | 261° |
| 2026-05-07 09:24 | 43.50188 | 46.16887 | 33110 ft | 436 kts | 261° |
| 2026-05-07 09:24 | 43.49412 | 46.08592 | 33094 ft | 437 kts | 261° |
| 2026-05-07 09:25 | 43.49295 | 46.00202 | 33086 ft | 442 kts | 275° |
| 2026-05-07 09:25 | 43.50014 | 45.91795 | 33094 ft | 442 kts | 274° |
| 2026-05-07 09:26 | 43.50710 | 45.83363 | 33099 ft | 443 kts | 274° |
| 2026-05-07 09:26 | 43.51400 | 45.74918 | 33102 ft | 444 kts | 274° |
| 2026-05-07 09:27 | 43.52081 | 45.66461 | 33108 ft | 445 kts | 274° |
| 2026-05-07 09:28 | 43.53106 | 45.53746 | 33102 ft | 446 kts | 275° |
| 2026-05-07 09:28 | 43.53779 | 45.45246 | 33097 ft | 446 kts | 275° |
| 2026-05-07 09:29 | 43.54445 | 45.36740 | 33111 ft | 447 kts | 274° |
| 2026-05-07 09:29 | 43.55108 | 45.28233 | 33112 ft | 447 kts | 275° |
| 2026-05-07 09:30 | 43.55768 | 45.19712 | 33105 ft | 447 kts | 274° |
| 2026-05-07 09:30 | 43.56418 | 45.11161 | 33105 ft | 449 kts | 275° |
| 2026-05-07 09:31 | 43.57065 | 45.02577 | 33108 ft | 451 kts | 274° |
| 2026-05-07 09:31 | 43.57714 | 44.93967 | 33110 ft | 452 kts | 274° |
| 2026-05-07 09:32 | 43.58354 | 44.85351 | 33125 ft | 452 kts | 275° |
| 2026-05-07 09:32 | 43.58986 | 44.76721 | 33128 ft | 453 kts | 275° |
| 2026-05-07 09:33 | 43.59613 | 44.68050 | 33118 ft | 456 kts | 275° |
| 2026-05-07 09:33 | 43.60238 | 44.59329 | 33120 ft | 458 kts | 275° |
| 2026-05-07 09:34 | 43.60857 | 44.50577 | 33123 ft | 459 kts | 275° |
| 2026-05-07 09:34 | 43.61469 | 44.41808 | 33129 ft | 459 kts | 275° |
| 2026-05-07 09:35 | 43.62075 | 44.33026 | 33124 ft | 460 kts | 275° |
| 2026-05-07 09:35 | 43.62687 | 44.24219 | 33101 ft | 462 kts | 275° |
| 2026-05-07 09:36 | 43.63284 | 44.15429 | 33104 ft | 464 kts | 275° |
| 2026-05-07 09:36 | 43.63742 | 44.06532 | 33117 ft | 465 kts | 273° |
| 2026-05-07 09:37 | 43.63962 | 43.97602 | 33117 ft | 466 kts | 271° |
| 2026-05-07 09:37 | 43.64146 | 43.88661 | 33120 ft | 466 kts | 272° |
| 2026-05-07 09:38 | 43.64371 | 43.79724 | 33115 ft | 466 kts | 272° |
| 2026-05-07 09:38 | 43.64626 | 43.70789 | 33126 ft | 466 kts | 272° |
| 2026-05-07 09:39 | 43.64872 | 43.61853 | 33124 ft | 466 kts | 272° |
| 2026-05-07 09:39 | 43.65100 | 43.52918 | 33128 ft | 465 kts | 272° |
| 2026-05-07 09:40 | 43.65319 | 43.43980 | 33129 ft | 466 kts | 272° |
| 2026-05-07 09:40 | 43.65533 | 43.35048 | 33132 ft | 466 kts | 272° |
| 2026-05-07 09:41 | 43.65737 | 43.26094 | 33140 ft | 466 kts | 272° |
| 2026-05-07 09:41 | 43.65931 | 43.17148 | 33145 ft | 467 kts | 272° |
| 2026-05-07 09:42 | 43.66126 | 43.08194 | 33146 ft | 467 kts | 272° |
| 2026-05-07 09:42 | 43.66316 | 42.99234 | 33161 ft | 467 kts | 272° |
| 2026-05-07 09:43 | 43.66498 | 42.90267 | 33160 ft | 467 kts | 272° |
| 2026-05-07 09:43 | 43.66666 | 42.81294 | 33154 ft | 468 kts | 272° |
| 2026-05-07 09:44 | 43.66830 | 42.72299 | 33154 ft | 469 kts | 272° |
| 2026-05-07 09:44 | 43.66991 | 42.63290 | 33159 ft | 469 kts | 272° |
| 2026-05-07 09:45 | 43.67144 | 42.54278 | 33165 ft | 470 kts | 272° |
| 2026-05-07 09:45 | 43.67290 | 42.45259 | 33165 ft | 470 kts | 272° |
| 2026-05-07 09:46 | 43.67433 | 42.36239 | 33158 ft | 470 kts | 272° |
| 2026-05-07 09:46 | 43.67563 | 42.27207 | 33160 ft | 471 kts | 272° |
| 2026-05-07 09:47 | 43.67684 | 42.18163 | 33162 ft | 471 kts | 271° |
| 2026-05-07 09:47 | 43.67802 | 42.09123 | 33164 ft | 471 kts | 271° |
| 2026-05-07 09:48 | 43.67907 | 42.00073 | 33162 ft | 471 kts | 271° |
| 2026-05-07 09:48 | 43.68010 | 41.91025 | 33153 ft | 472 kts | 272° |
| 2026-05-07 09:49 | 43.68108 | 41.81953 | 33153 ft | 473 kts | 272° |
| 2026-05-07 09:49 | 43.68201 | 41.72868 | 33158 ft | 473 kts | 272° |
| 2026-05-07 09:50 | 43.68290 | 41.63782 | 33164 ft | 473 kts | 271° |
| 2026-05-07 09:50 | 43.68366 | 41.54691 | 33166 ft | 474 kts | 271° |
| 2026-05-07 09:51 | 43.68424 | 41.45586 | 33162 ft | 474 kts | 271° |
| 2026-05-07 09:51 | 43.68474 | 41.36486 | 33161 ft | 474 kts | 271° |
| 2026-05-07 09:52 | 43.68531 | 41.27367 | 33169 ft | 475 kts | 271° |
| 2026-05-07 09:52 | 43.68581 | 41.18250 | 33176 ft | 474 kts | 271° |
| 2026-05-07 09:53 | 43.68621 | 41.09138 | 33182 ft | 474 kts | 271° |
| 2026-05-07 09:53 | 43.68650 | 41.00028 | 33182 ft | 474 kts | 271° |
| 2026-05-07 09:54 | 43.68670 | 40.90928 | 33172 ft | 474 kts | 271° |
| 2026-05-07 09:54 | 43.68690 | 40.83359 | 33185 ft | 474 kts | 271° |
| 2026-05-07 09:55 | 43.68738 | 40.74244 | 33187 ft | 474 kts | 272° |
| 2026-05-07 09:55 | 43.68787 | 40.65134 | 33192 ft | 474 kts | 272° |
| 2026-05-07 09:56 | 43.68818 | 40.56019 | 33211 ft | 474 kts | 271° |
| 2026-05-07 09:56 | 43.68835 | 40.46909 | 33199 ft | 474 kts | 271° |
| 2026-05-07 09:57 | 43.68839 | 40.37795 | 33212 ft | 475 kts | 271° |
| 2026-05-07 09:57 | 43.68842 | 40.28676 | 33220 ft | 474 kts | 271° |
| 2026-05-07 09:58 | 43.68841 | 40.19562 | 33223 ft | 475 kts | 271° |
| 2026-05-07 09:58 | 43.68267 | 40.10485 | 33233 ft | 476 kts | 257° |
| 2026-05-07 09:59 | 43.65931 | 40.01931 | 33240 ft | 477 kts | 246° |
| 2026-05-07 09:59 | 43.63200 | 39.93570 | 33232 ft | 478 kts | 246° |
| 2026-05-07 10:00 | 43.60470 | 39.85212 | 33231 ft | 478 kts | 246° |
| 2026-05-07 10:00 | 43.57728 | 39.76851 | 33245 ft | 478 kts | 246° |
| 2026-05-07 10:01 | 43.54982 | 39.68496 | 33253 ft | 479 kts | 246° |
| 2026-05-07 10:01 | 43.52212 | 39.60152 | 33250 ft | 479 kts | 246° |
| 2026-05-07 10:02 | 43.49827 | 39.53019 | 33250 ft | 479 kts | 246° |
| 2026-05-07 10:02 | 43.47084 | 39.44821 | 33249 ft | 478 kts | 246° |
| 2026-05-07 10:03 | 43.44301 | 39.36502 | 33247 ft | 478 kts | 246° |
| 2026-05-07 10:03 | 43.41516 | 39.28212 | 33239 ft | 477 kts | 246° |
| 2026-05-07 10:04 | 43.38721 | 39.19926 | 33237 ft | 477 kts | 245° |
| 2026-05-07 10:04 | 43.35924 | 39.11667 | 33236 ft | 476 kts | 246° |
| 2026-05-07 10:05 | 43.33269 | 39.03343 | 33233 ft | 475 kts | 249° |
| 2026-05-07 10:05 | 43.30937 | 38.94847 | 33232 ft | 475 kts | 251° |
| 2026-05-07 10:06 | 43.28679 | 38.86389 | 33215 ft | 475 kts | 250° |
| 2026-05-07 10:06 | 43.26329 | 38.77927 | 33219 ft | 475 kts | 250° |
| 2026-05-07 10:07 | 43.23902 | 38.69509 | 33228 ft | 475 kts | 249° |
| 2026-05-07 10:07 | 43.21453 | 38.61106 | 33230 ft | 475 kts | 249° |
| 2026-05-07 10:08 | 43.19012 | 38.52697 | 33232 ft | 475 kts | 249° |
| 2026-05-07 10:08 | 43.16575 | 38.44300 | 33238 ft | 474 kts | 249° |
| 2026-05-07 10:09 | 43.14133 | 38.35917 | 33242 ft | 474 kts | 249° |
| 2026-05-07 10:09 | 43.11688 | 38.27535 | 33243 ft | 474 kts | 249° |
| 2026-05-07 10:10 | 43.09232 | 38.19168 | 33233 ft | 474 kts | 249° |
| 2026-05-07 10:10 | 43.06775 | 38.10811 | 33237 ft | 473 kts | 249° |
| 2026-05-07 10:11 | 43.04348 | 38.02456 | 33240 ft | 472 kts | 249° |
| 2026-05-07 10:11 | 43.01918 | 37.94114 | 33238 ft | 472 kts | 249° |
| 2026-05-07 10:12 | 42.99469 | 37.85800 | 33237 ft | 472 kts | 249° |
| 2026-05-07 10:12 | 42.97000 | 37.77498 | 33242 ft | 472 kts | 249° |
| 2026-05-07 10:13 | 42.94523 | 37.69210 | 33243 ft | 472 kts | 249° |
| 2026-05-07 10:13 | 42.92034 | 37.60925 | 33244 ft | 471 kts | 249° |
| 2026-05-07 10:14 | 42.89535 | 37.52655 | 33239 ft | 471 kts | 249° |
| 2026-05-07 10:14 | 42.87037 | 37.44396 | 33244 ft | 471 kts | 249° |
| 2026-05-07 10:15 | 42.84545 | 37.36140 | 33245 ft | 471 kts | 249° |
| 2026-05-07 10:15 | 42.82049 | 37.27893 | 33244 ft | 471 kts | 249° |
| 2026-05-07 10:16 | 42.79544 | 37.19667 | 33232 ft | 470 kts | 249° |
| 2026-05-07 10:16 | 42.77030 | 37.11455 | 33240 ft | 470 kts | 249° |
| 2026-05-07 10:17 | 42.74514 | 37.03257 | 33239 ft | 469 kts | 249° |
| 2026-05-07 10:17 | 42.72005 | 36.95076 | 33238 ft | 469 kts | 249° |
| 2026-05-07 10:18 | 42.69391 | 36.86960 | 33242 ft | 469 kts | 246° |
| 2026-05-07 10:18 | 42.66498 | 36.79019 | 33236 ft | 469 kts | 244° |
| 2026-05-07 10:19 | 42.63522 | 36.71135 | 33233 ft | 469 kts | 244° |
| 2026-05-07 10:19 | 42.60596 | 36.63224 | 33228 ft | 469 kts | 245° |
| 2026-05-07 10:20 | 42.57717 | 36.55287 | 33228 ft | 469 kts | 245° |
| 2026-05-07 10:20 | 42.54830 | 36.47364 | 33224 ft | 468 kts | 245° |
| 2026-05-07 10:21 | 42.51924 | 36.39453 | 33221 ft | 468 kts | 244° |
| 2026-05-07 10:21 | 42.49008 | 36.31567 | 33210 ft | 468 kts | 244° |
| 2026-05-07 10:22 | 42.46090 | 36.23688 | 33218 ft | 468 kts | 245° |
| 2026-05-07 10:22 | 42.43180 | 36.15827 | 33218 ft | 467 kts | 245° |
| 2026-05-07 10:23 | 42.40262 | 36.07973 | 33221 ft | 467 kts | 244° |
| 2026-05-07 10:23 | 42.37339 | 36.00133 | 33214 ft | 467 kts | 245° |
| 2026-05-07 10:24 | 42.34412 | 35.92308 | 33218 ft | 466 kts | 245° |
| 2026-05-07 10:24 | 42.31485 | 35.84500 | 33218 ft | 466 kts | 245° |
| 2026-05-07 10:25 | 42.28553 | 35.76695 | 33218 ft | 466 kts | 244° |
| 2026-05-07 10:25 | 42.25613 | 35.68905 | 33209 ft | 465 kts | 245° |
| 2026-05-07 10:26 | 42.22672 | 35.61127 | 33215 ft | 465 kts | 245° |
| 2026-05-07 10:26 | 42.19726 | 35.53360 | 33209 ft | 465 kts | 245° |
| 2026-05-07 10:27 | 42.16782 | 35.45606 | 33204 ft | 464 kts | 245° |
| 2026-05-07 10:27 | 42.13833 | 35.37865 | 33182 ft | 464 kts | 245° |
| 2026-05-07 10:28 | 42.10896 | 35.30124 | 33190 ft | 464 kts | 245° |
| 2026-05-07 10:28 | 42.07955 | 35.22385 | 33194 ft | 464 kts | 245° |
| 2026-05-07 10:29 | 42.05009 | 35.14659 | 33195 ft | 464 kts | 245° |
| 2026-05-07 10:29 | 42.01638 | 35.07239 | 33172 ft | 469 kts | 233° |
| 2026-05-07 10:30 | 41.94450 | 34.98199 | 33169 ft | 473 kts | 224° |
| 2026-05-07 10:30 | 41.89544 | 34.92312 | 33152 ft | 473 kts | 225° |
| 2026-05-07 10:31 | 41.84624 | 34.86416 | 33146 ft | 475 kts | 225° |
| 2026-05-07 10:31 | 41.79689 | 34.80522 | 33140 ft | 476 kts | 225° |
| 2026-05-07 10:32 | 41.74737 | 34.74628 | 33130 ft | 476 kts | 225° |
| 2026-05-07 10:32 | 41.69775 | 34.68734 | 33127 ft | 477 kts | 225° |
| 2026-05-07 10:33 | 41.64809 | 34.62838 | 33154 ft | 478 kts | 225° |
| 2026-05-07 10:33 | 41.59829 | 34.56942 | 33136 ft | 478 kts | 225° |
| 2026-05-07 10:34 | 41.54873 | 34.51093 | 33139 ft | 479 kts | 225° |
| 2026-05-07 10:34 | 41.49900 | 34.45185 | 33144 ft | 479 kts | 225° |
| 2026-05-07 10:35 | 41.44930 | 34.39271 | 33119 ft | 478 kts | 226° |
| 2026-05-07 10:35 | 41.39973 | 34.33399 | 33159 ft | 476 kts | 226° |
| 2026-05-07 10:36 | 41.35026 | 34.27552 | 33159 ft | 475 kts | 226° |
| 2026-05-07 10:36 | 41.30081 | 34.21730 | 33177 ft | 474 kts | 226° |
| 2026-05-07 10:37 | 41.25130 | 34.15923 | 33166 ft | 475 kts | 225° |
| 2026-05-07 10:37 | 41.20172 | 34.10131 | 33173 ft | 475 kts | 225° |
| 2026-05-07 10:38 | 41.16016 | 34.05278 | 33161 ft | 474 kts | 225° |
| 2026-05-07 10:38 | 41.11052 | 33.99501 | 33180 ft | 474 kts | 225° |
| 2026-05-07 10:39 | 41.06102 | 33.93749 | 33174 ft | 473 kts | 225° |
| 2026-05-07 10:39 | 41.01151 | 33.88002 | 33181 ft | 473 kts | 225° |
| 2026-05-07 10:40 | 40.96202 | 33.82276 | 33185 ft | 472 kts | 225° |
| 2026-05-07 10:40 | 40.91288 | 33.76603 | 33193 ft | 472 kts | 225° |
| 2026-05-07 10:41 | 40.86350 | 33.70902 | 33194 ft | 471 kts | 225° |
| 2026-05-07 10:41 | 40.81401 | 33.65198 | 33198 ft | 471 kts | 225° |
| 2026-05-07 10:42 | 40.76463 | 33.59537 | 33197 ft | 470 kts | 225° |
| 2026-05-07 10:42 | 40.71521 | 33.53887 | 33194 ft | 470 kts | 225° |
| 2026-05-07 10:43 | 40.66589 | 33.48247 | 33202 ft | 469 kts | 225° |
| 2026-05-07 10:43 | 40.61660 | 33.42607 | 33201 ft | 469 kts | 225° |
| 2026-05-07 10:44 | 40.56730 | 33.36981 | 33201 ft | 469 kts | 226° |
| 2026-05-07 10:44 | 40.51796 | 33.31380 | 33205 ft | 468 kts | 225° |
| 2026-05-07 10:45 | 40.46866 | 33.25795 | 33187 ft | 468 kts | 226° |
| 2026-05-07 10:45 | 40.41934 | 33.20207 | 33200 ft | 468 kts | 226° |
| 2026-05-07 10:46 | 40.37006 | 33.14637 | 33210 ft | 468 kts | 226° |
| 2026-05-07 10:46 | 40.32075 | 33.09071 | 33194 ft | 468 kts | 226° |
| 2026-05-07 10:47 | 40.27140 | 33.03522 | 33199 ft | 468 kts | 226° |
| 2026-05-07 10:47 | 40.22197 | 32.97976 | 33205 ft | 468 kts | 226° |
| 2026-05-07 10:48 | 40.17252 | 32.92438 | 33187 ft | 468 kts | 226° |
| 2026-05-07 10:48 | 40.12302 | 32.86906 | 33196 ft | 468 kts | 226° |
| 2026-05-07 10:49 | 40.07274 | 32.81464 | 33214 ft | 473 kts | 220° |
| 2026-05-07 10:49 | 40.01463 | 32.77277 | 33209 ft | 479 kts | 212° |
| 2026-05-07 10:50 | 39.95529 | 32.73303 | 33212 ft | 480 kts | 213° |
| 2026-05-07 10:50 | 39.89599 | 32.69326 | 33214 ft | 480 kts | 213° |
| 2026-05-07 10:51 | 39.83664 | 32.65350 | 33213 ft | 480 kts | 213° |
| 2026-05-07 10:51 | 39.77724 | 32.61380 | 33211 ft | 480 kts | 213° |
| 2026-05-07 10:52 | 39.71778 | 32.57419 | 33200 ft | 481 kts | 213° |
| 2026-05-07 10:52 | 39.65818 | 32.53464 | 33211 ft | 481 kts | 213° |
| 2026-05-07 10:53 | 39.59855 | 32.49513 | 33209 ft | 482 kts | 213° |
| 2026-05-07 10:53 | 39.53882 | 32.45562 | 33217 ft | 482 kts | 213° |
| 2026-05-07 10:54 | 39.47912 | 32.41615 | 33220 ft | 482 kts | 213° |
| 2026-05-07 10:54 | 39.41935 | 32.37670 | 33215 ft | 482 kts | 213° |
| 2026-05-07 10:55 | 39.35950 | 32.33741 | 33197 ft | 483 kts | 213° |
| 2026-05-07 10:55 | 39.29953 | 32.29827 | 33206 ft | 483 kts | 213° |
| 2026-05-07 10:56 | 39.23947 | 32.25916 | 33221 ft | 484 kts | 213° |
| 2026-05-07 10:56 | 39.17926 | 32.22019 | 33212 ft | 484 kts | 213° |
| 2026-05-07 10:57 | 39.11909 | 32.18129 | 33220 ft | 484 kts | 213° |
| 2026-05-07 10:57 | 39.08893 | 32.16175 | 32948 ft | 485 kts | 213° |
| 2026-05-07 10:57 | 39.05880 | 32.14218 | 32584 ft | 485 kts | 213° |
| 2026-05-07 10:58 | 39.02914 | 32.12293 | 32226 ft | 485 kts | 213° |
| 2026-05-07 10:58 | 38.99899 | 32.10340 | 31870 ft | 485 kts | 213° |
| 2026-05-07 10:58 | 38.96882 | 32.08392 | 31521 ft | 486 kts | 213° |
| 2026-05-07 10:58 | 38.93853 | 32.06438 | 31154 ft | 487 kts | 213° |
| 2026-05-07 10:59 | 38.90823 | 32.04487 | 30801 ft | 488 kts | 213° |
| 2026-05-07 10:59 | 38.87786 | 32.02537 | 30462 ft | 489 kts | 213° |
| 2026-05-07 10:59 | 38.84745 | 32.00566 | 30101 ft | 490 kts | 213° |
| 2026-05-07 10:59 | 38.81699 | 31.98591 | 29705 ft | 490 kts | 212° |
| 2026-05-07 11:00 | 38.78649 | 31.96633 | 29314 ft | 491 kts | 212° |
| 2026-05-07 11:00 | 38.75589 | 31.94678 | 28925 ft | 491 kts | 212° |
| 2026-05-07 11:00 | 38.72528 | 31.92729 | 28547 ft | 492 kts | 212° |
| 2026-05-07 11:00 | 38.69465 | 31.90778 | 28171 ft | 492 kts | 212° |
| 2026-05-07 11:01 | 38.66409 | 31.88828 | 27800 ft | 487 kts | 212° |
| 2026-05-07 11:01 | 38.63411 | 31.86922 | 27433 ft | 477 kts | 212° |
| 2026-05-07 11:01 | 38.60464 | 31.85052 | 27061 ft | 468 kts | 212° |
| 2026-05-07 11:01 | 38.57577 | 31.83219 | 26708 ft | 459 kts | 212° |
| 2026-05-07 11:02 | 38.54736 | 31.81416 | 26354 ft | 453 kts | 211° |
| 2026-05-07 11:02 | 38.51924 | 31.79628 | 25993 ft | 449 kts | 211° |
| 2026-05-07 11:02 | 38.49142 | 31.77850 | 25656 ft | 447 kts | 211° |
| 2026-05-07 11:02 | 38.46365 | 31.76077 | 25322 ft | 445 kts | 211° |
| 2026-05-07 11:03 | 38.43611 | 31.74326 | 24988 ft | 442 kts | 211° |
| 2026-05-07 11:03 | 38.40859 | 31.72583 | 24655 ft | 440 kts | 211° |
| 2026-05-07 11:03 | 38.38121 | 31.70856 | 24330 ft | 438 kts | 211° |
| 2026-05-07 11:03 | 38.35396 | 31.69136 | 24009 ft | 436 kts | 211° |
| 2026-05-07 11:04 | 38.32693 | 31.67427 | 23673 ft | 434 kts | 211° |
| 2026-05-07 11:04 | 38.29999 | 31.65724 | 23294 ft | 431 kts | 211° |
| 2026-05-07 11:04 | 38.27325 | 31.64038 | 22916 ft | 427 kts | 210° |
| 2026-05-07 11:04 | 38.24672 | 31.62366 | 22532 ft | 424 kts | 210° |
| 2026-05-07 11:05 | 38.22038 | 31.60711 | 22180 ft | 420 kts | 210° |
| 2026-05-07 11:05 | 38.19426 | 31.59067 | 21821 ft | 417 kts | 210° |
| 2026-05-07 11:05 | 38.16839 | 31.57440 | 21483 ft | 414 kts | 210° |
| 2026-05-07 11:05 | 38.14269 | 31.55827 | 21154 ft | 411 kts | 209° |
| 2026-05-07 11:06 | 38.11601 | 31.54535 | 20841 ft | 412 kts | 197° |
| 2026-05-07 11:06 | 38.08778 | 31.53922 | 20590 ft | 413 kts | 186° |
| 2026-05-07 11:06 | 38.05916 | 31.53724 | 20344 ft | 411 kts | 185° |
| 2026-05-07 11:06 | 38.03065 | 31.53547 | 20100 ft | 409 kts | 185° |
| 2026-05-07 11:07 | 38.00237 | 31.53376 | 19854 ft | 406 kts | 185° |
| 2026-05-07 11:07 | 37.97425 | 31.53202 | 19610 ft | 404 kts | 185° |
| 2026-05-07 11:07 | 37.94625 | 31.53026 | 19371 ft | 401 kts | 185° |
| 2026-05-07 11:07 | 37.91847 | 31.52852 | 19139 ft | 399 kts | 185° |
| 2026-05-07 11:08 | 37.89079 | 31.52679 | 18903 ft | 397 kts | 185° |
| 2026-05-07 11:08 | 37.86329 | 31.52505 | 18670 ft | 395 kts | 185° |
| 2026-05-07 11:08 | 37.83593 | 31.52334 | 18428 ft | 393 kts | 184° |
| 2026-05-07 11:08 | 37.80872 | 31.52163 | 18161 ft | 391 kts | 185° |
| 2026-05-07 11:09 | 37.78161 | 31.51991 | 17887 ft | 389 kts | 184° |
| 2026-05-07 11:09 | 37.75462 | 31.51774 | 17623 ft | 388 kts | 186° |
| 2026-05-07 11:09 | 37.72783 | 31.51448 | 17362 ft | 386 kts | 188° |
| 2026-05-07 11:09 | 37.70121 | 31.51058 | 17092 ft | 384 kts | 188° |
| 2026-05-07 11:10 | 37.67470 | 31.50641 | 16832 ft | 384 kts | 188° |
| 2026-05-07 11:10 | 37.64822 | 31.50223 | 16573 ft | 383 kts | 188° |
| 2026-05-07 11:10 | 37.62181 | 31.49817 | 16317 ft | 382 kts | 188° |
| 2026-05-07 11:10 | 37.59548 | 31.49429 | 16066 ft | 380 kts | 188° |
| 2026-05-07 11:11 | 37.56922 | 31.49058 | 15819 ft | 379 kts | 187° |
| 2026-05-07 11:11 | 37.54303 | 31.48696 | 15567 ft | 378 kts | 187° |
| 2026-05-07 11:11 | 37.51694 | 31.48337 | 15323 ft | 377 kts | 187° |
| 2026-05-07 11:11 | 37.49095 | 31.47979 | 15079 ft | 376 kts | 187° |
| 2026-05-07 11:12 | 37.46496 | 31.47617 | 14827 ft | 375 kts | 187° |
| 2026-05-07 11:12 | 37.43904 | 31.47259 | 14596 ft | 374 kts | 187° |
| 2026-05-07 11:12 | 37.41322 | 31.46903 | 14378 ft | 373 kts | 187° |
| 2026-05-07 11:12 | 37.38749 | 31.46544 | 14153 ft | 372 kts | 187° |
| 2026-05-07 11:13 | 37.36178 | 31.46184 | 13941 ft | 371 kts | 187° |
| 2026-05-07 11:13 | 37.33619 | 31.45827 | 13706 ft | 369 kts | 187° |
| 2026-05-07 11:13 | 37.31071 | 31.45475 | 13462 ft | 367 kts | 187° |
| 2026-05-07 11:13 | 37.28534 | 31.45125 | 13220 ft | 366 kts | 187° |
| 2026-05-07 11:14 | 37.26039 | 31.44780 | 12978 ft | 356 kts | 187° |
| 2026-05-07 11:14 | 37.23614 | 31.44448 | 12764 ft | 345 kts | 187° |
| 2026-05-07 11:14 | 37.21276 | 31.44005 | 12584 ft | 334 kts | 195° |
| 2026-05-07 11:14 | 37.19126 | 31.43055 | 12404 ft | 323 kts | 207° |
| 2026-05-07 11:15 | 37.17237 | 31.41631 | 12232 ft | 312 kts | 219° |
| 2026-05-07 11:15 | 37.15652 | 31.39851 | 12040 ft | 301 kts | 230° |
| 2026-05-07 11:15 | 37.14385 | 31.37822 | 11872 ft | 291 kts | 239° |
| 2026-05-07 11:15 | 37.13445 | 31.35624 | 11672 ft | 281 kts | 250° |
| 2026-05-07 11:16 | 37.12837 | 31.33352 | 11509 ft | 270 kts | 260° |
| 2026-05-07 11:16 | 37.12543 | 31.31066 | 11336 ft | 263 kts | 268° |
| 2026-05-07 11:16 | 37.12481 | 31.28791 | 11156 ft | 260 kts | 274° |
| 2026-05-07 11:16 | 37.12611 | 31.26542 | 10985 ft | 258 kts | 279° |
| 2026-05-07 11:17 | 37.12811 | 31.24303 | 10816 ft | 258 kts | 279° |
| 2026-05-07 11:17 | 37.13004 | 31.22082 | 10776 ft | 256 kts | 279° |
| 2026-05-07 11:17 | 37.13133 | 31.20611 | 10777 ft | 257 kts | 279° |
| 2026-05-07 11:17 | 37.13395 | 31.17643 | 10807 ft | 256 kts | 279° |
| 2026-05-07 11:18 | 37.13595 | 31.15418 | 10745 ft | 257 kts | 279° |
| 2026-05-07 11:18 | 37.13793 | 31.13202 | 10537 ft | 255 kts | 279° |
| 2026-05-07 11:18 | 37.13991 | 31.10990 | 10352 ft | 256 kts | 279° |
| 2026-05-07 11:18 | 37.14185 | 31.08777 | 10161 ft | 255 kts | 278° |
| 2026-05-07 11:19 | 37.14379 | 31.06572 | 9961 ft | 255 kts | 278° |
| 2026-05-07 11:19 | 37.14574 | 31.04369 | 9749 ft | 254 kts | 278° |
| 2026-05-07 11:19 | 37.14704 | 31.02916 | 9610 ft | 253 kts | 278° |
| 2026-05-07 11:19 | 37.14954 | 31.00742 | 9394 ft | 250 kts | 289° |
| 2026-05-07 11:20 | 37.15798 | 30.98887 | 9181 ft | 244 kts | 316° |
| 2026-05-07 11:20 | 37.17199 | 30.97750 | 8982 ft | 241 kts | 342° |
| 2026-05-07 11:20 | 37.18852 | 30.97537 | 8765 ft | 240 kts | 6° |
| 2026-05-07 11:20 | 37.20515 | 30.97773 | 8585 ft | 241 kts | 6° |
| 2026-05-07 11:21 | 37.22178 | 30.98011 | 8384 ft | 240 kts | 6° |
| 2026-05-07 11:21 | 37.23836 | 30.98247 | 8184 ft | 239 kts | 6° |
| 2026-05-07 11:21 | 37.25489 | 30.98482 | 7974 ft | 240 kts | 6° |
| 2026-05-07 11:21 | 37.27106 | 30.98713 | 7937 ft | 226 kts | 6° |
| 2026-05-07 11:22 | 37.28638 | 30.98928 | 7941 ft | 219 kts | 4° |
| 2026-05-07 11:22 | 37.30135 | 30.98712 | 7943 ft | 219 kts | 341° |
| 2026-05-07 11:22 | 37.31443 | 30.97737 | 7873 ft | 222 kts | 318° |
| 2026-05-07 11:22 | 37.32311 | 30.96158 | 7676 ft | 222 kts | 293° |
| 2026-05-07 11:23 | 37.32583 | 30.94262 | 7463 ft | 223 kts | 269° |
| 2026-05-07 11:23 | 37.32251 | 30.92352 | 7280 ft | 225 kts | 253° |
| 2026-05-07 11:23 | 37.31788 | 30.90474 | 7052 ft | 224 kts | 255° |
| 2026-05-07 11:23 | 37.31176 | 30.88668 | 6830 ft | 226 kts | 237° |
| 2026-05-07 11:24 | 37.30096 | 30.87240 | 6610 ft | 227 kts | 216° |
| 2026-05-07 11:24 | 37.28672 | 30.86384 | 6387 ft | 229 kts | 194° |
| 2026-05-07 11:24 | 37.27105 | 30.86109 | 6162 ft | 226 kts | 186° |
| 2026-05-07 11:24 | 37.25543 | 30.85902 | 5942 ft | 225 kts | 186° |
| 2026-05-07 11:25 | 37.23986 | 30.85687 | 5715 ft | 225 kts | 186° |
| 2026-05-07 11:25 | 37.22430 | 30.85471 | 5480 ft | 225 kts | 187° |
| 2026-05-07 11:25 | 37.20883 | 30.85256 | 5272 ft | 223 kts | 187° |
| 2026-05-07 11:25 | 37.19343 | 30.85041 | 5122 ft | 223 kts | 186° |
| 2026-05-07 11:26 | 37.17806 | 30.84828 | 4918 ft | 223 kts | 186° |
| 2026-05-07 11:26 | 37.16263 | 30.84614 | 4728 ft | 222 kts | 186° |
| 2026-05-07 11:26 | 37.14755 | 30.84405 | 4522 ft | 222 kts | 187° |
| 2026-05-07 11:26 | 37.13227 | 30.84193 | 4334 ft | 221 kts | 187° |
| 2026-05-07 11:27 | 37.11693 | 30.83981 | 4162 ft | 222 kts | 186° |
| 2026-05-07 11:27 | 37.10164 | 30.83770 | 3950 ft | 220 kts | 186° |
| 2026-05-07 11:27 | 37.08643 | 30.83560 | 3758 ft | 219 kts | 187° |
| 2026-05-07 11:27 | 37.07133 | 30.83352 | 3487 ft | 219 kts | 186° |
| 2026-05-07 11:28 | 37.05619 | 30.83141 | 3038 ft | 217 kts | 186° |
| 2026-05-07 11:28 | 37.04147 | 30.82937 | 2729 ft | 209 kts | 186° |
| 2026-05-07 11:28 | 37.02734 | 30.82741 | 2451 ft | 199 kts | 186° |
| 2026-05-07 11:28 | 37.01384 | 30.82555 | 2209 ft | 191 kts | 185° |
| 2026-05-07 11:29 | 37.00109 | 30.82378 | 1957 ft | 177 kts | 185° |
| 2026-05-07 11:29 | 36.98906 | 30.82212 | 1728 ft | 171 kts | 185° |
| 2026-05-07 11:29 | 36.97744 | 30.82052 | 1517 ft | 166 kts | 185° |
| 2026-05-07 11:29 | 36.96618 | 30.81897 | 1310 ft | 160 kts | 186° |
| 2026-05-07 11:30 | 36.95520 | 30.81745 | 1090 ft | 158 kts | 185° |
| 2026-05-07 11:30 | 36.94439 | 30.81599 | 892 ft | 155 kts | 186° |
| 2026-05-07 11:30 | 36.93366 | 30.81458 | 662 ft | 155 kts | 185° |
| 2026-05-07 11:30 | 36.92298 | 30.81305 | 455 ft | 154 kts | 186° |
| 2026-05-07 11:31 | 36.91247 | 30.81157 | 252 ft | 151 kts | 186° |
| 2026-05-07 11:31 | 36.90260 | 30.81021 | 191 ft | 127 kts | 186° |
| 2026-05-07 11:31 | 36.89547 | 30.80928 | 194 ft | 79 kts | 186° |
| 2026-05-07 11:31 | 36.89174 | 30.80877 | 188 ft | 31 kts | 186° |
| 2026-05-07 11:32 | 36.88801 | 30.80818 | 201 ft | 24 kts | 195° |
| 2026-05-07 11:32 | 36.88660 | 30.80728 | 203 ft | 22 kts | 215° |
| 2026-05-07 11:32 | 36.88572 | 30.80647 | 208 ft | 14 kts | 219° |
| 2026-05-07 11:33 | 36.88584 | 30.80560 | 208 ft | 13 kts | 347° |
| 2026-05-07 11:33 | 36.88675 | 30.80569 | 196 ft | 14 kts | 6° |
| 2026-05-07 11:33 | 36.88771 | 30.80582 | 204 ft | 14 kts | 6° |
| 2026-05-07 11:33 | 36.88873 | 30.80596 | 197 ft | 15 kts | 6° |
| 2026-05-07 11:34 | 36.88979 | 30.80610 | 201 ft | 16 kts | 6° |
| 2026-05-07 11:34 | 36.89090 | 30.80625 | 192 ft | 16 kts | 6° |
| 2026-05-07 11:34 | 36.89184 | 30.80631 | 198 ft | 11 kts | 341° |
| 2026-05-07 11:34 | 36.89207 | 30.80544 | 192 ft | 11 kts | 276° |
| 2026-05-07 11:35 | 36.89216 | 30.80444 | 192 ft | 12 kts | 276° |
| 2026-05-07 11:35 | 36.89225 | 30.80338 | 192 ft | 13 kts | 276° |
| 2026-05-07 11:35 | 36.89232 | 30.80250 | 204 ft | 6 kts | 276° |
| 2026-05-07 11:35 | 36.89260 | 30.80221 | 203 ft | 5 kts | 355° |
| 2026-05-07 11:36 | 36.89287 | 30.80224 | 194 ft | 3 kts | 6° |
| 2026-05-07 11:36 | 36.89304 | 30.80227 | 192 ft | 2 kts | 6° |
| 2026-05-07 11:36 | 36.89310 | 30.80228 | 192 ft | 0 kts | 6° |